Terminal Aerodrome Forecast
Issued by NWS Grand Junction, CO

Home | Current Version | Previous Version | Text Only | Print | Product List | Glossary On
Versions: 1 2 3 4 5 6 7 8 9 10 11 12 13 14
000
FTUS45 KGJT 171120
TAFGJT
TAF
KGJT 171120Z 1712/1812 12008KT P6SM FEW250
     FM171700 VRB03KT P6SM FEW250
     FM172000 30005KT P6SM SCT250
     FM180200 07004KT P6SM SCT250
     FM180700 12010KT P6SM SKC=

USA.gov is the U.S. government's official web portal to all federal, state and local government web resources and services.